sensor_id;sensor_type;location;lat;lon;timestamp;P1;durP1;ratioP1;P2;durP2;ratioP2
22064;SDS011;11197;53.110;8.468;2023-05-29T00:00:28;15.77;;;2.90;;
22064;SDS011;11197;53.110;8.468;2023-05-29T00:02:54;16.13;;;2.72;;
22064;SDS011;11197;53.110;8.468;2023-05-29T00:05:20;12.02;;;2.00;;
22064;SDS011;11197;53.110;8.468;2023-05-29T00:07:46;11.43;;;2.30;;
22064;SDS011;11197;53.110;8.468;2023-05-29T00:10:13;13.27;;;2.88;;
22064;SDS011;11197;53.110;8.468;2023-05-29T00:12:40;13.93;;;2.60;;
22064;SDS011;11197;53.110;8.468;2023-05-29T00:15:06;11.05;;;2.20;;
22064;SDS011;11197;53.110;8.468;2023-05-29T00:17:33;9.77;;;2.28;;
22064;SDS011;11197;53.110;8.468;2023-05-29T00:19:59;17.30;;;2.63;;
22064;SDS011;11197;53.110;8.468;2023-05-29T00:22:26;11.82;;;2.50;;
22064;SDS011;11197;53.110;8.468;2023-05-29T00:24:52;12.40;;;2.63;;
22064;SDS011;11197;53.110;8.468;2023-05-29T00:27:18;10.15;;;2.33;;
22064;SDS011;11197;53.110;8.468;2023-05-29T00:29:45;15.75;;;2.28;;
22064;SDS011;11197;53.110;8.468;2023-05-29T00:32:11;13.35;;;2.50;;
22064;SDS011;11197;53.110;8.468;2023-05-29T00:34:37;14.07;;;2.38;;
22064;SDS011;11197;53.110;8.468;2023-05-29T00:37:02;12.85;;;2.55;;
22064;SDS011;11197;53.110;8.468;2023-05-29T00:39:28;13.65;;;3.00;;
22064;SDS011;11197;53.110;8.468;2023-05-29T00:41:54;15.88;;;2.83;;
22064;SDS011;11197;53.110;8.468;2023-05-29T00:44:21;13.65;;;2.80;;
22064;SDS011;11197;53.110;8.468;2023-05-29T00:46:47;11.77;;;2.13;;
22064;SDS011;11197;53.110;8.468;2023-05-29T00:49:16;11.85;;;2.03;;
22064;SDS011;11197;53.110;8.468;2023-05-29T00:51:43;13.85;;;2.38;;
22064;SDS011;11197;53.110;8.468;2023-05-29T00:54:11;12.13;;;2.13;;
22064;SDS011;11197;53.110;8.468;2023-05-29T00:56:39;11.18;;;2.30;;
22064;SDS011;11197;53.110;8.468;2023-05-29T00:59:09;14.25;;;2.67;;
22064;SDS011;11197;53.110;8.468;2023-05-29T01:01:36;16.95;;;2.55;;
22064;SDS011;11197;53.110;8.468;2023-05-29T01:04:03;11.88;;;1.98;;
22064;SDS011;11197;53.110;8.468;2023-05-29T01:06:32;13.50;;;2.60;;
22064;SDS011;11197;53.110;8.468;2023-05-29T01:08:58;11.27;;;2.22;;
22064;SDS011;11197;53.110;8.468;2023-05-29T01:11:39;11.60;;;2.35;;
22064;SDS011;11197;53.110;8.468;2023-05-29T01:14:33;13.13;;;2.50;;
22064;SDS011;11197;53.110;8.468;2023-05-29T01:22:40;12.40;;;2.60;;
22064;SDS011;11197;53.110;8.468;2023-05-29T01:25:31;12.75;;;2.50;;
22064;SDS011;11197;53.110;8.468;2023-05-29T01:28:01;10.63;;;2.33;;
22064;SDS011;11197;53.110;8.468;2023-05-29T01:30:30;10.18;;;2.10;;
22064;SDS011;11197;53.110;8.468;2023-05-29T01:32:58;11.13;;;2.40;;
22064;SDS011;11197;53.110;8.468;2023-05-29T01:35:24;13.80;;;2.50;;
22064;SDS011;11197;53.110;8.468;2023-05-29T01:37:53;10.18;;;2.60;;
22064;SDS011;11197;53.110;8.468;2023-05-29T01:40:21;12.70;;;2.50;;
22064;SDS011;11197;53.110;8.468;2023-05-29T01:42:47;13.23;;;2.40;;
22064;SDS011;11197;53.110;8.468;2023-05-29T01:45:13;12.85;;;2.70;;
22064;SDS011;11197;53.110;8.468;2023-05-29T01:47:39;11.40;;;2.60;;
22064;SDS011;11197;53.110;8.468;2023-05-29T01:50:06;11.35;;;2.58;;
22064;SDS011;11197;53.110;8.468;2023-05-29T01:52:33;12.70;;;2.40;;
22064;SDS011;11197;53.110;8.468;2023-05-29T01:55:00;16.25;;;2.95;;
22064;SDS011;11197;53.110;8.468;2023-05-29T01:57:26;12.35;;;2.50;;
22064;SDS011;11197;53.110;8.468;2023-05-29T01:59:52;16.55;;;2.80;;
22064;SDS011;11197;53.110;8.468;2023-05-29T02:02:21;11.40;;;2.58;;
22064;SDS011;11197;53.110;8.468;2023-05-29T02:04:47;16.65;;;2.70;;
22064;SDS011;11197;53.110;8.468;2023-05-29T02:07:12;12.05;;;2.33;;
22064;SDS011;11197;53.110;8.468;2023-05-29T02:09:40;15.98;;;2.78;;
22064;SDS011;11197;53.110;8.468;2023-05-29T02:12:06;18.92;;;3.03;;
22064;SDS011;11197;53.110;8.468;2023-05-29T02:14:33;15.65;;;2.65;;
22064;SDS011;11197;53.110;8.468;2023-05-29T02:16:59;12.45;;;2.35;;
22064;SDS011;11197;53.110;8.468;2023-05-29T02:19:26;13.48;;;2.55;;
22064;SDS011;11197;53.110;8.468;2023-05-29T02:21:53;16.73;;;2.72;;
22064;SDS011;11197;53.110;8.468;2023-05-29T02:24:19;12.55;;;2.70;;
22064;SDS011;11197;53.110;8.468;2023-05-29T02:26:47;10.30;;;2.60;;
22064;SDS011;11197;53.110;8.468;2023-05-29T02:29:15;11.98;;;2.38;;
22064;SDS011;11197;53.110;8.468;2023-05-29T02:31:41;11.88;;;2.65;;
22064;SDS011;11197;53.110;8.468;2023-05-29T02:34:06;9.63;;;2.45;;
22064;SDS011;11197;53.110;8.468;2023-05-29T02:36:32;10.93;;;2.35;;
22064;SDS011;11197;53.110;8.468;2023-05-29T02:39:00;12.65;;;2.22;;
22064;SDS011;11197;53.110;8.468;2023-05-29T02:41:26;12.82;;;2.63;;
22064;SDS011;11197;53.110;8.468;2023-05-29T02:43:52;11.82;;;2.20;;
22064;SDS011;11197;53.110;8.468;2023-05-29T02:46:20;13.65;;;2.70;;
22064;SDS011;11197;53.110;8.468;2023-05-29T02:48:48;11.05;;;2.42;;
22064;SDS011;11197;53.110;8.468;2023-05-29T02:51:17;11.48;;;2.22;;
22064;SDS011;11197;53.110;8.468;2023-05-29T02:53:43;14.95;;;2.42;;
22064;SDS011;11197;53.110;8.468;2023-05-29T02:56:08;12.95;;;2.50;;
22064;SDS011;11197;53.110;8.468;2023-05-29T02:58:34;11.88;;;2.28;;
22064;SDS011;11197;53.110;8.468;2023-05-29T03:01:01;15.07;;;2.72;;
22064;SDS011;11197;53.110;8.468;2023-05-29T03:03:29;9.95;;;2.00;;
22064;SDS011;11197;53.110;8.468;2023-05-29T03:05:55;11.65;;;2.63;;
22064;SDS011;11197;53.110;8.468;2023-05-29T03:08:21;13.13;;;2.42;;
22064;SDS011;11197;53.110;8.468;2023-05-29T03:10:46;10.90;;;2.50;;
22064;SDS011;11197;53.110;8.468;2023-05-29T03:13:13;10.93;;;2.42;;
22064;SDS011;11197;53.110;8.468;2023-05-29T03:15:47;10.10;;;2.42;;
22064;SDS011;11197;53.110;8.468;2023-05-29T03:18:19;11.75;;;2.55;;
22064;SDS011;11197;53.110;8.468;2023-05-29T03:20:45;12.98;;;2.83;;
22064;SDS011;11197;53.110;8.468;2023-05-29T03:23:11;12.98;;;2.95;;
22064;SDS011;11197;53.110;8.468;2023-05-29T03:25:36;8.75;;;2.40;;
22064;SDS011;11197;53.110;8.468;2023-05-29T03:28:02;11.60;;;2.65;;
22064;SDS011;11197;53.110;8.468;2023-05-29T03:30:28;12.27;;;2.53;;
22064;SDS011;11197;53.110;8.468;2023-05-29T03:32:54;13.65;;;2.50;;
22064;SDS011;11197;53.110;8.468;2023-05-29T03:35:30;16.02;;;2.85;;
22064;SDS011;11197;53.110;8.468;2023-05-29T03:37:56;10.52;;;2.45;;
22064;SDS011;11197;53.110;8.468;2023-05-29T03:40:22;11.02;;;2.63;;
22064;SDS011;11197;53.110;8.468;2023-05-29T03:42:51;7.95;;;2.17;;
22064;SDS011;11197;53.110;8.468;2023-05-29T03:45:16;10.30;;;2.13;;
22064;SDS011;11197;53.110;8.468;2023-05-29T03:47:42;10.00;;;2.20;;
22064;SDS011;11197;53.110;8.468;2023-05-29T03:50:08;13.70;;;2.72;;
22064;SDS011;11197;53.110;8.468;2023-05-29T03:52:35;11.55;;;2.50;;
22064;SDS011;11197;53.110;8.468;2023-05-29T03:55:02;12.20;;;2.45;;
22064;SDS011;11197;53.110;8.468;2023-05-29T03:57:28;12.70;;;2.38;;
22064;SDS011;11197;53.110;8.468;2023-05-29T03:59:53;12.68;;;2.45;;
22064;SDS011;11197;53.110;8.468;2023-05-29T04:02:23;15.07;;;2.75;;
22064;SDS011;11197;53.110;8.468;2023-05-29T04:05:04;12.57;;;2.25;;
22064;SDS011;11197;53.110;8.468;2023-05-29T04:07:32;16.85;;;2.53;;
22064;SDS011;11197;53.110;8.468;2023-05-29T04:09:58;13.40;;;2.55;;
22064;SDS011;11197;53.110;8.468;2023-05-29T04:12:24;13.30;;;2.60;;
22064;SDS011;11197;53.110;8.468;2023-05-29T04:14:50;13.32;;;2.50;;
22064;SDS011;11197;53.110;8.468;2023-05-29T04:17:15;13.65;;;2.38;;
22064;SDS011;11197;53.110;8.468;2023-05-29T04:19:42;10.73;;;2.42;;
22064;SDS011;11197;53.110;8.468;2023-05-29T04:22:07;14.05;;;2.50;;
22064;SDS011;11197;53.110;8.468;2023-05-29T04:24:33;17.15;;;2.70;;
22064;SDS011;11197;53.110;8.468;2023-05-29T04:27:01;14.77;;;2.70;;
22064;SDS011;11197;53.110;8.468;2023-05-29T04:29:31;10.50;;;2.30;;
22064;SDS011;11197;53.110;8.468;2023-05-29T04:31:59;12.55;;;2.75;;
22064;SDS011;11197;53.110;8.468;2023-05-29T04:34:29;16.77;;;2.80;;
22064;SDS011;11197;53.110;8.468;2023-05-29T04:36:58;15.43;;;3.17;;
22064;SDS011;11197;53.110;8.468;2023-05-29T04:39:24;10.13;;;2.33;;
22064;SDS011;11197;53.110;8.468;2023-05-29T04:41:51;11.82;;;2.70;;
22064;SDS011;11197;53.110;8.468;2023-05-29T04:44:20;12.65;;;2.42;;
22064;SDS011;11197;53.110;8.468;2023-05-29T04:46:50;16.83;;;2.80;;
22064;SDS011;11197;53.110;8.468;2023-05-29T04:49:17;15.25;;;2.47;;
22064;SDS011;11197;53.110;8.468;2023-05-29T04:51:43;9.57;;;2.10;;
22064;SDS011;11197;53.110;8.468;2023-05-29T04:54:10;12.48;;;2.35;;
22064;SDS011;11197;53.110;8.468;2023-05-29T04:56:37;12.93;;;2.45;;
22064;SDS011;11197;53.110;8.468;2023-05-29T04:59:06;14.02;;;2.70;;
22064;SDS011;11197;53.110;8.468;2023-05-29T05:01:32;10.88;;;2.65;;
22064;SDS011;11197;53.110;8.468;2023-05-29T05:03:59;12.18;;;2.50;;
22064;SDS011;11197;53.110;8.468;2023-05-29T05:06:25;15.65;;;2.78;;
22064;SDS011;11197;53.110;8.468;2023-05-29T05:08:52;14.15;;;2.60;;
22064;SDS011;11197;53.110;8.468;2023-05-29T05:11:19;13.60;;;2.42;;
22064;SDS011;11197;53.110;8.468;2023-05-29T05:13:47;17.85;;;2.47;;
22064;SDS011;11197;53.110;8.468;2023-05-29T05:16:13;11.80;;;2.55;;
22064;SDS011;11197;53.110;8.468;2023-05-29T05:18:40;15.93;;;3.05;;
22064;SDS011;11197;53.110;8.468;2023-05-29T05:21:07;17.67;;;2.70;;
22064;SDS011;11197;53.110;8.468;2023-05-29T05:23:34;17.73;;;2.72;;
22064;SDS011;11197;53.110;8.468;2023-05-29T05:26:01;11.80;;;2.83;;
22064;SDS011;11197;53.110;8.468;2023-05-29T05:28:27;14.93;;;2.80;;
22064;SDS011;11197;53.110;8.468;2023-05-29T05:30:53;14.68;;;2.97;;
22064;SDS011;11197;53.110;8.468;2023-05-29T05:33:19;17.08;;;2.67;;
22064;SDS011;11197;53.110;8.468;2023-05-29T05:35:49;14.75;;;2.83;;
22064;SDS011;11197;53.110;8.468;2023-05-29T05:38:15;21.38;;;3.35;;
22064;SDS011;11197;53.110;8.468;2023-05-29T05:40:41;21.08;;;3.63;;
22064;SDS011;11197;53.110;8.468;2023-05-29T05:43:14;13.60;;;2.75;;
22064;SDS011;11197;53.110;8.468;2023-05-29T05:45:59;11.85;;;2.78;;
22064;SDS011;11197;53.110;8.468;2023-05-29T05:48:26;16.25;;;2.88;;
22064;SDS011;11197;53.110;8.468;2023-05-29T05:50:52;15.63;;;3.00;;
22064;SDS011;11197;53.110;8.468;2023-05-29T05:53:18;17.10;;;2.88;;
22064;SDS011;11197;53.110;8.468;2023-05-29T05:55:46;12.30;;;2.50;;
22064;SDS011;11197;53.110;8.468;2023-05-29T05:58:12;19.27;;;2.92;;
22064;SDS011;11197;53.110;8.468;2023-05-29T06:00:39;20.20;;;2.88;;
22064;SDS011;11197;53.110;8.468;2023-05-29T06:03:05;19.02;;;2.85;;
22064;SDS011;11197;53.110;8.468;2023-05-29T06:05:49;16.70;;;2.70;;
22064;SDS011;11197;53.110;8.468;2023-05-29T06:08:15;19.77;;;3.38;;
22064;SDS011;11197;53.110;8.468;2023-05-29T06:10:42;18.10;;;3.05;;
22064;SDS011;11197;53.110;8.468;2023-05-29T06:13:09;17.25;;;3.25;;
22064;SDS011;11197;53.110;8.468;2023-05-29T06:15:43;15.85;;;2.70;;
22064;SDS011;11197;53.110;8.468;2023-05-29T06:18:09;20.15;;;3.22;;
22064;SDS011;11197;53.110;8.468;2023-05-29T06:20:37;17.08;;;2.92;;
22064;SDS011;11197;53.110;8.468;2023-05-29T06:23:03;16.33;;;3.05;;
22064;SDS011;11197;53.110;8.468;2023-05-29T06:25:30;21.23;;;3.50;;
22064;SDS011;11197;53.110;8.468;2023-05-29T06:27:59;19.13;;;2.92;;
22064;SDS011;11197;53.110;8.468;2023-05-29T06:30:26;20.25;;;3.30;;
22064;SDS011;11197;53.110;8.468;2023-05-29T06:32:52;17.75;;;3.08;;
22064;SDS011;11197;53.110;8.468;2023-05-29T06:35:23;16.55;;;2.97;;
22064;SDS011;11197;53.110;8.468;2023-05-29T06:37:49;20.42;;;3.35;;
22064;SDS011;11197;53.110;8.468;2023-05-29T06:40:17;15.00;;;3.10;;
22064;SDS011;11197;53.110;8.468;2023-05-29T06:42:44;21.00;;;3.40;;
22064;SDS011;11197;53.110;8.468;2023-05-29T06:45:13;18.02;;;3.38;;
22064;SDS011;11197;53.110;8.468;2023-05-29T06:47:39;16.83;;;3.20;;
22064;SDS011;11197;53.110;8.468;2023-05-29T06:50:08;18.50;;;3.72;;
22064;SDS011;11197;53.110;8.468;2023-05-29T06:52:36;15.15;;;2.83;;
22064;SDS011;11197;53.110;8.468;2023-05-29T06:55:08;17.52;;;3.33;;
22064;SDS011;11197;53.110;8.468;2023-05-29T06:57:34;16.35;;;3.50;;
22064;SDS011;11197;53.110;8.468;2023-05-29T07:00:00;19.98;;;3.30;;
22064;SDS011;11197;53.110;8.468;2023-05-29T07:02:28;16.33;;;3.45;;
22064;SDS011;11197;53.110;8.468;2023-05-29T07:04:56;24.40;;;3.35;;
22064;SDS011;11197;53.110;8.468;2023-05-29T07:07:24;17.60;;;3.28;;
22064;SDS011;11197;53.110;8.468;2023-05-29T07:09:50;17.77;;;3.40;;
22064;SDS011;11197;53.110;8.468;2023-05-29T07:12:15;16.45;;;3.60;;
22064;SDS011;11197;53.110;8.468;2023-05-29T07:14:41;17.08;;;3.28;;
22064;SDS011;11197;53.110;8.468;2023-05-29T07:17:07;15.60;;;3.20;;
22064;SDS011;11197;53.110;8.468;2023-05-29T07:19:33;14.68;;;3.42;;
22064;SDS011;11197;53.110;8.468;2023-05-29T07:22:00;17.27;;;3.30;;
22064;SDS011;11197;53.110;8.468;2023-05-29T07:24:26;14.13;;;2.88;;
22064;SDS011;11197;53.110;8.468;2023-05-29T07:26:52;18.27;;;3.25;;
22064;SDS011;11197;53.110;8.468;2023-05-29T07:29:20;16.88;;;3.17;;
22064;SDS011;11197;53.110;8.468;2023-05-29T07:31:49;14.15;;;3.13;;
22064;SDS011;11197;53.110;8.468;2023-05-29T07:34:19;15.45;;;3.25;;
22064;SDS011;11197;53.110;8.468;2023-05-29T07:39:44;15.07;;;3.42;;
22064;SDS011;11197;53.110;8.468;2023-05-29T07:42:28;17.38;;;3.38;;
22064;SDS011;11197;53.110;8.468;2023-05-29T07:44:54;17.85;;;3.58;;
22064;SDS011;11197;53.110;8.468;2023-05-29T07:47:22;21.52;;;3.97;;
22064;SDS011;11197;53.110;8.468;2023-05-29T07:49:47;20.58;;;3.47;;
22064;SDS011;11197;53.110;8.468;2023-05-29T07:52:13;13.73;;;3.75;;
22064;SDS011;11197;53.110;8.468;2023-05-29T07:54:40;17.10;;;3.80;;
22064;SDS011;11197;53.110;8.468;2023-05-29T07:57:13;19.88;;;3.63;;
22064;SDS011;11197;53.110;8.468;2023-05-29T07:59:41;18.38;;;3.22;;
22064;SDS011;11197;53.110;8.468;2023-05-29T08:02:08;19.02;;;3.70;;
22064;SDS011;11197;53.110;8.468;2023-05-29T08:05:10;21.23;;;3.40;;
22064;SDS011;11197;53.110;8.468;2023-05-29T08:07:36;19.50;;;3.88;;
22064;SDS011;11197;53.110;8.468;2023-05-29T08:10:02;16.60;;;3.35;;
22064;SDS011;11197;53.110;8.468;2023-05-29T08:12:30;17.88;;;3.17;;
22064;SDS011;11197;53.110;8.468;2023-05-29T08:14:58;18.05;;;3.22;;
22064;SDS011;11197;53.110;8.468;2023-05-29T08:17:24;19.77;;;3.78;;
22064;SDS011;11197;53.110;8.468;2023-05-29T08:19:50;15.23;;;3.30;;
22064;SDS011;11197;53.110;8.468;2023-05-29T08:22:16;18.90;;;3.33;;
22064;SDS011;11197;53.110;8.468;2023-05-29T08:24:42;20.75;;;3.70;;
22064;SDS011;11197;53.110;8.468;2023-05-29T08:27:07;16.27;;;3.22;;
22064;SDS011;11197;53.110;8.468;2023-05-29T08:29:33;18.98;;;3.88;;
22064;SDS011;11197;53.110;8.468;2023-05-29T08:31:59;21.40;;;3.85;;
22064;SDS011;11197;53.110;8.468;2023-05-29T08:34:25;15.73;;;3.78;;
22064;SDS011;11197;53.110;8.468;2023-05-29T08:36:50;24.65;;;4.30;;
22064;SDS011;11197;53.110;8.468;2023-05-29T08:39:16;20.60;;;3.70;;
22064;SDS011;11197;53.110;8.468;2023-05-29T08:42:01;22.30;;;3.85;;
22064;SDS011;11197;53.110;8.468;2023-05-29T08:44:32;19.08;;;3.50;;
22064;SDS011;11197;53.110;8.468;2023-05-29T08:47:00;22.38;;;3.65;;
22064;SDS011;11197;53.110;8.468;2023-05-29T08:49:29;22.27;;;3.55;;
22064;SDS011;11197;53.110;8.468;2023-05-29T08:52:02;17.70;;;3.75;;
22064;SDS011;11197;53.110;8.468;2023-05-29T08:54:43;20.58;;;3.95;;
22064;SDS011;11197;53.110;8.468;2023-05-29T08:57:11;17.50;;;3.60;;
22064;SDS011;11197;53.110;8.468;2023-05-29T08:59:39;19.63;;;3.65;;
22064;SDS011;11197;53.110;8.468;2023-05-29T09:02:07;18.20;;;3.60;;
22064;SDS011;11197;53.110;8.468;2023-05-29T09:04:33;20.98;;;3.83;;
22064;SDS011;11197;53.110;8.468;2023-05-29T09:06:59;18.23;;;3.53;;
22064;SDS011;11197;53.110;8.468;2023-05-29T09:09:25;19.67;;;3.67;;
22064;SDS011;11197;53.110;8.468;2023-05-29T09:11:54;17.20;;;3.45;;
22064;SDS011;11197;53.110;8.468;2023-05-29T09:14:34;18.30;;;3.38;;
22064;SDS011;11197;53.110;8.468;2023-05-29T09:17:02;17.20;;;3.13;;
22064;SDS011;11197;53.110;8.468;2023-05-29T09:19:29;19.90;;;3.33;;
22064;SDS011;11197;53.110;8.468;2023-05-29T09:24:50;19.73;;;3.50;;
22064;SDS011;11197;53.110;8.468;2023-05-29T09:27:16;17.42;;;3.88;;
22064;SDS011;11197;53.110;8.468;2023-05-29T09:29:44;19.45;;;3.88;;
22064;SDS011;11197;53.110;8.468;2023-05-29T09:32:20;18.80;;;3.75;;
22064;SDS011;11197;53.110;8.468;2023-05-29T09:34:46;20.30;;;3.58;;
22064;SDS011;11197;53.110;8.468;2023-05-29T09:37:12;18.27;;;3.50;;
22064;SDS011;11197;53.110;8.468;2023-05-29T09:42:07;20.08;;;3.60;;
22064;SDS011;11197;53.110;8.468;2023-05-29T09:44:34;18.38;;;3.50;;
22064;SDS011;11197;53.110;8.468;2023-05-29T09:47:00;17.88;;;3.30;;
22064;SDS011;11197;53.110;8.468;2023-05-29T09:49:26;13.93;;;2.90;;
22064;SDS011;11197;53.110;8.468;2023-05-29T09:51:53;19.23;;;3.20;;
22064;SDS011;11197;53.110;8.468;2023-05-29T09:54:19;24.23;;;4.32;;
22064;SDS011;11197;53.110;8.468;2023-05-29T09:56:45;17.15;;;4.03;;
22064;SDS011;11197;53.110;8.468;2023-05-29T09:59:12;17.73;;;3.60;;
22064;SDS011;11197;53.110;8.468;2023-05-29T10:01:40;21.52;;;3.78;;
22064;SDS011;11197;53.110;8.468;2023-05-29T10:04:12;18.67;;;4.07;;
22064;SDS011;11197;53.110;8.468;2023-05-29T10:06:44;20.75;;;3.70;;
22064;SDS011;11197;53.110;8.468;2023-05-29T10:09:12;17.65;;;3.78;;
22064;SDS011;11197;53.110;8.468;2023-05-29T10:11:41;20.15;;;3.50;;
22064;SDS011;11197;53.110;8.468;2023-05-29T10:14:09;17.38;;;3.85;;
22064;SDS011;11197;53.110;8.468;2023-05-29T10:16:41;17.88;;;3.35;;
22064;SDS011;11197;53.110;8.468;2023-05-29T10:19:11;16.02;;;3.45;;
22064;SDS011;11197;53.110;8.468;2023-05-29T10:21:41;16.08;;;3.67;;
22064;SDS011;11197;53.110;8.468;2023-05-29T10:24:09;17.33;;;3.80;;
22064;SDS011;11197;53.110;8.468;2023-05-29T10:26:36;17.98;;;3.38;;
22064;SDS011;11197;53.110;8.468;2023-05-29T10:37:35;21.55;;;3.85;;
22064;SDS011;11197;53.110;8.468;2023-05-29T10:40:11;17.55;;;3.88;;
22064;SDS011;11197;53.110;8.468;2023-05-29T10:42:47;15.57;;;3.47;;
22064;SDS011;11197;53.110;8.468;2023-05-29T10:50:36;19.40;;;3.70;;
22064;SDS011;11197;53.110;8.468;2023-05-29T10:53:05;18.33;;;3.13;;
22064;SDS011;11197;53.110;8.468;2023-05-29T10:55:39;16.88;;;3.50;;
22064;SDS011;11197;53.110;8.468;2023-05-29T10:58:09;16.02;;;3.28;;
22064;SDS011;11197;53.110;8.468;2023-05-29T11:00:41;15.80;;;3.20;;
22064;SDS011;11197;53.110;8.468;2023-05-29T11:03:08;17.00;;;3.17;;
22064;SDS011;11197;53.110;8.468;2023-05-29T11:05:35;17.60;;;3.65;;
22064;SDS011;11197;53.110;8.468;2023-05-29T11:08:34;20.08;;;3.55;;
22064;SDS011;11197;53.110;8.468;2023-05-29T11:11:15;20.60;;;3.57;;
22064;SDS011;11197;53.110;8.468;2023-05-29T11:14:06;19.63;;;3.67;;
22064;SDS011;11197;53.110;8.468;2023-05-29T11:19:03;21.95;;;3.53;;
22064;SDS011;11197;53.110;8.468;2023-05-29T11:24:35;18.05;;;4.32;;
22064;SDS011;11197;53.110;8.468;2023-05-29T11:27:03;15.50;;;3.45;;
22064;SDS011;11197;53.110;8.468;2023-05-29T11:29:34;17.83;;;3.42;;
22064;SDS011;11197;53.110;8.468;2023-05-29T11:32:01;16.92;;;3.35;;
22064;SDS011;11197;53.110;8.468;2023-05-29T11:34:41;16.08;;;4.03;;
22064;SDS011;11197;53.110;8.468;2023-05-29T11:37:14;18.80;;;3.67;;
22064;SDS011;11197;53.110;8.468;2023-05-29T11:39:45;18.23;;;4.00;;
22064;SDS011;11197;53.110;8.468;2023-05-29T11:42:18;17.48;;;3.15;;
22064;SDS011;11197;53.110;8.468;2023-05-29T11:44:46;18.92;;;3.95;;
22064;SDS011;11197;53.110;8.468;2023-05-29T11:47:19;17.73;;;3.10;;
22064;SDS011;11197;53.110;8.468;2023-05-29T11:49:55;15.68;;;3.53;;
22064;SDS011;11197;53.110;8.468;2023-05-29T11:52:22;13.55;;;3.15;;
22064;SDS011;11197;53.110;8.468;2023-05-29T11:54:56;18.05;;;3.38;;
22064;SDS011;11197;53.110;8.468;2023-05-29T11:57:32;19.98;;;3.63;;
22064;SDS011;11197;53.110;8.468;2023-05-29T12:00:01;17.55;;;3.38;;
22064;SDS011;11197;53.110;8.468;2023-05-29T12:02:36;17.80;;;3.60;;
22064;SDS011;11197;53.110;8.468;2023-05-29T12:05:12;19.08;;;3.58;;
22064;SDS011;11197;53.110;8.468;2023-05-29T12:07:49;17.38;;;3.75;;
22064;SDS011;11197;53.110;8.468;2023-05-29T12:10:17;16.50;;;3.83;;
22064;SDS011;11197;53.110;8.468;2023-05-29T12:12:51;21.30;;;3.60;;
22064;SDS011;11197;53.110;8.468;2023-05-29T12:15:19;21.60;;;3.72;;
22064;SDS011;11197;53.110;8.468;2023-05-29T12:17:47;13.95;;;3.45;;
22064;SDS011;11197;53.110;8.468;2023-05-29T12:20:14;18.08;;;3.65;;
22064;SDS011;11197;53.110;8.468;2023-05-29T12:22:41;19.30;;;3.72;;
22064;SDS011;11197;53.110;8.468;2023-05-29T12:27:42;19.02;;;3.50;;
22064;SDS011;11197;53.110;8.468;2023-05-29T12:30:19;23.88;;;3.67;;
22064;SDS011;11197;53.110;8.468;2023-05-29T12:32:50;19.27;;;3.53;;
22064;SDS011;11197;53.110;8.468;2023-05-29T12:37:44;18.77;;;3.70;;
22064;SDS011;11197;53.110;8.468;2023-05-29T12:40:18;14.60;;;3.35;;
22064;SDS011;11197;53.110;8.468;2023-05-29T12:42:46;17.00;;;3.25;;
22064;SDS011;11197;53.110;8.468;2023-05-29T12:45:13;23.88;;;3.80;;
22064;SDS011;11197;53.110;8.468;2023-05-29T12:50:38;17.17;;;3.40;;
22064;SDS011;11197;53.110;8.468;2023-05-29T12:55:32;12.90;;;2.92;;
22064;SDS011;11197;53.110;8.468;2023-05-29T13:00:28;20.05;;;3.50;;
22064;SDS011;11197;53.110;8.468;2023-05-29T13:02:56;16.00;;;3.50;;
22064;SDS011;11197;53.110;8.468;2023-05-29T13:05:22;18.27;;;3.53;;
22064;SDS011;11197;53.110;8.468;2023-05-29T13:07:51;14.48;;;3.13;;
22064;SDS011;11197;53.110;8.468;2023-05-29T13:10:18;14.52;;;3.13;;
22064;SDS011;11197;53.110;8.468;2023-05-29T13:12:44;16.98;;;3.10;;
22064;SDS011;11197;53.110;8.468;2023-05-29T13:15:11;15.68;;;3.38;;
22064;SDS011;11197;53.110;8.468;2023-05-29T13:17:39;19.10;;;3.05;;
22064;SDS011;11197;53.110;8.468;2023-05-29T13:20:07;20.52;;;3.75;;
22064;SDS011;11197;53.110;8.468;2023-05-29T13:22:35;15.50;;;3.10;;
22064;SDS011;11197;53.110;8.468;2023-05-29T13:25:01;16.77;;;3.08;;
22064;SDS011;11197;53.110;8.468;2023-05-29T13:27:27;13.85;;;3.35;;
22064;SDS011;11197;53.110;8.468;2023-05-29T13:29:53;16.40;;;3.35;;
22064;SDS011;11197;53.110;8.468;2023-05-29T13:32:19;14.20;;;2.90;;
22064;SDS011;11197;53.110;8.468;2023-05-29T13:34:46;14.75;;;2.90;;
22064;SDS011;11197;53.110;8.468;2023-05-29T13:37:12;16.27;;;3.25;;
22064;SDS011;11197;53.110;8.468;2023-05-29T13:39:38;15.52;;;3.03;;
22064;SDS011;11197;53.110;8.468;2023-05-29T13:42:04;10.32;;;2.90;;
22064;SDS011;11197;53.110;8.468;2023-05-29T13:44:31;12.70;;;3.10;;
22064;SDS011;11197;53.110;8.468;2023-05-29T13:46:57;16.25;;;3.22;;
22064;SDS011;11197;53.110;8.468;2023-05-29T13:49:25;12.98;;;2.90;;
22064;SDS011;11197;53.110;8.468;2023-05-29T13:51:51;13.35;;;3.10;;
22064;SDS011;11197;53.110;8.468;2023-05-29T13:54:17;12.98;;;2.92;;
22064;SDS011;11197;53.110;8.468;2023-05-29T13:56:43;15.57;;;2.70;;
22064;SDS011;11197;53.110;8.468;2023-05-29T13:59:09;13.20;;;3.20;;
22064;SDS011;11197;53.110;8.468;2023-05-29T14:01:35;14.55;;;2.95;;
22064;SDS011;11197;53.110;8.468;2023-05-29T14:04:00;13.65;;;2.90;;
22064;SDS011;11197;53.110;8.468;2023-05-29T14:06:26;13.07;;;2.67;;
22064;SDS011;11197;53.110;8.468;2023-05-29T14:08:52;14.02;;;3.10;;
22064;SDS011;11197;53.110;8.468;2023-05-29T14:11:19;13.07;;;2.83;;
22064;SDS011;11197;53.110;8.468;2023-05-29T14:13:45;12.50;;;3.05;;
22064;SDS011;11197;53.110;8.468;2023-05-29T14:16:11;13.80;;;2.92;;
22064;SDS011;11197;53.110;8.468;2023-05-29T14:18:36;14.43;;;3.17;;
22064;SDS011;11197;53.110;8.468;2023-05-29T14:21:02;13.93;;;2.60;;
22064;SDS011;11197;53.110;8.468;2023-05-29T14:23:28;15.27;;;3.00;;
22064;SDS011;11197;53.110;8.468;2023-05-29T14:25:54;14.82;;;3.10;;
22064;SDS011;11197;53.110;8.468;2023-05-29T14:28:20;13.88;;;2.95;;
22064;SDS011;11197;53.110;8.468;2023-05-29T14:30:46;17.02;;;3.35;;
22064;SDS011;11197;53.110;8.468;2023-05-29T14:33:12;17.08;;;3.33;;
22064;SDS011;11197;53.110;8.468;2023-05-29T14:35:37;13.88;;;2.72;;
22064;SDS011;11197;53.110;8.468;2023-05-29T14:38:03;14.68;;;2.63;;
22064;SDS011;11197;53.110;8.468;2023-05-29T14:40:29;10.95;;;2.63;;
22064;SDS011;11197;53.110;8.468;2023-05-29T14:42:56;12.43;;;2.67;;
22064;SDS011;11197;53.110;8.468;2023-05-29T14:45:22;14.50;;;2.78;;
22064;SDS011;11197;53.110;8.468;2023-05-29T14:47:48;15.90;;;2.80;;
22064;SDS011;11197;53.110;8.468;2023-05-29T14:50:13;10.43;;;2.45;;
22064;SDS011;11197;53.110;8.468;2023-05-29T14:52:40;15.65;;;2.90;;
22064;SDS011;11197;53.110;8.468;2023-05-29T14:55:06;14.25;;;3.08;;
22064;SDS011;11197;53.110;8.468;2023-05-29T14:57:32;12.20;;;2.63;;
22064;SDS011;11197;53.110;8.468;2023-05-29T15:00:00;10.95;;;2.40;;
22064;SDS011;11197;53.110;8.468;2023-05-29T15:02:27;16.30;;;3.17;;
22064;SDS011;11197;53.110;8.468;2023-05-29T15:04:53;13.77;;;2.53;;
22064;SDS011;11197;53.110;8.468;2023-05-29T15:07:21;12.98;;;2.40;;
22064;SDS011;11197;53.110;8.468;2023-05-29T15:09:47;12.30;;;2.22;;
22064;SDS011;11197;53.110;8.468;2023-05-29T15:12:13;13.98;;;2.72;;
22064;SDS011;11197;53.110;8.468;2023-05-29T15:14:38;10.68;;;2.13;;
22064;SDS011;11197;53.110;8.468;2023-05-29T15:17:04;8.73;;;1.85;;
22064;SDS011;11197;53.110;8.468;2023-05-29T15:19:30;11.82;;;2.78;;
22064;SDS011;11197;53.110;8.468;2023-05-29T15:21:57;15.13;;;2.80;;
22064;SDS011;11197;53.110;8.468;2023-05-29T15:24:24;10.43;;;2.38;;
22064;SDS011;11197;53.110;8.468;2023-05-29T15:26:50;10.18;;;2.33;;